createdAt,value
2022-12-06T00:00:06.719Z,7.50
2022-12-06T00:02:34.704Z,7.50
2022-12-06T00:05:02.685Z,7.50
2022-12-06T00:07:33.137Z,7.50
2022-12-06T00:10:01.412Z,7.50
2022-12-06T00:12:29.569Z,7.50
2022-12-06T00:14:57.554Z,7.50
2022-12-06T00:17:25.510Z,7.50
2022-12-06T00:19:53.439Z,7.50
2022-12-06T00:22:21.351Z,7.50
2022-12-06T00:24:50.577Z,7.50
2022-12-06T00:27:18.553Z,7.50
2022-12-06T00:29:46.441Z,7.40
2022-12-06T00:32:19.273Z,7.40
2022-12-06T00:34:47.634Z,7.50
2022-12-06T00:37:15.561Z,7.50
2022-12-06T00:39:43.694Z,7.50
2022-12-06T00:42:12.900Z,7.50
2022-12-06T00:44:40.766Z,7.50
2022-12-06T00:47:08.623Z,7.50
2022-12-06T00:49:36.677Z,7.50
2022-12-06T00:52:04.879Z,7.50
2022-12-06T00:54:32.783Z,7.40
2022-12-06T00:57:00.713Z,7.40
2022-12-06T00:59:29.939Z,7.40
2022-12-06T01:01:57.828Z,7.40
2022-12-06T01:04:25.733Z,7.40
2022-12-06T01:06:53.663Z,7.40
2022-12-06T01:09:21.579Z,7.40
2022-12-06T01:11:49.596Z,7.40
2022-12-06T01:14:17.455Z,7.40
2022-12-06T01:16:46.731Z,7.40
2022-12-06T01:19:14.853Z,7.40
2022-12-06T01:21:42.713Z,7.40
2022-12-06T01:24:10.586Z,7.40
2022-12-06T01:26:38.515Z,7.40
2022-12-06T01:29:06.825Z,7.40
2022-12-06T01:31:38.742Z,7.40
2022-12-06T01:34:14.350Z,7.40
2022-12-06T01:36:42.537Z,7.40
2022-12-06T01:39:11.274Z,7.40
2022-12-06T01:41:39.722Z,7.40
2022-12-06T01:44:08.372Z,7.40
2022-12-06T01:46:39.584Z,7.40
2022-12-06T01:49:22.088Z,7.40
2022-12-06T01:51:55.967Z,7.40
2022-12-06T01:54:26.607Z,7.40
2022-12-06T01:56:55.791Z,7.40
2022-12-06T01:59:25.483Z,7.40
2022-12-06T02:01:53.982Z,7.40
2022-12-06T02:04:24.004Z,7.40
2022-12-06T02:06:53.636Z,7.40
2022-12-06T02:09:21.934Z,7.40
2022-12-06T02:11:50.122Z,7.40
2022-12-06T02:14:21.103Z,7.40
2022-12-06T02:17:05.763Z,7.40
2022-12-06T02:20:04.618Z,7.50
2022-12-06T02:22:48.277Z,7.40
2022-12-06T02:25:43.349Z,7.40
2022-12-06T02:28:30.765Z,7.40
2022-12-06T02:31:06.038Z,7.40
2022-12-06T02:33:39.132Z,7.50
2022-12-06T02:36:15.080Z,7.50
2022-12-06T02:38:48.716Z,7.50
2022-12-06T02:41:23.268Z,7.50
2022-12-06T02:43:56.659Z,7.50
2022-12-06T02:46:29.901Z,7.50
2022-12-06T02:49:00.682Z,7.50
2022-12-06T02:51:30.355Z,7.50
2022-12-06T02:54:00.785Z,7.50
2022-12-06T02:56:29.520Z,7.50
2022-12-06T02:58:57.735Z,7.50
2022-12-06T03:01:30.920Z,7.50
2022-12-06T03:04:31.588Z,7.50
2022-12-06T03:07:24.924Z,7.50
2022-12-06T03:10:10.353Z,7.50
2022-12-06T03:12:46.889Z,7.40
2022-12-06T03:15:21.332Z,7.50
2022-12-06T03:17:55.648Z,7.50
2022-12-06T03:20:28.858Z,7.40
2022-12-06T03:23:02.404Z,7.40
2022-12-06T03:25:32.472Z,7.40
2022-12-06T03:28:02.811Z,7.40
2022-12-06T03:30:34.073Z,7.40
2022-12-06T03:33:03.993Z,7.40
2022-12-06T03:35:35.408Z,7.30
2022-12-06T03:38:08.308Z,7.30
2022-12-06T03:40:40.346Z,7.40
2022-12-06T03:43:08.782Z,7.40
2022-12-06T03:45:40.209Z,7.30
2022-12-06T03:48:13.653Z,7.30
2022-12-06T03:50:44.756Z,7.40
2022-12-06T03:53:12.689Z,7.30
2022-12-06T03:55:42.268Z,7.30
2022-12-06T03:58:10.286Z,7.30
2022-12-06T04:00:38.368Z,7.30
2022-12-06T04:03:06.412Z,7.30
2022-12-06T04:05:35.686Z,7.30
2022-12-06T04:08:03.669Z,7.30
2022-12-06T04:10:31.708Z,7.30
2022-12-06T04:13:01.278Z,7.30
2022-12-06T04:15:30.446Z,7.30
2022-12-06T04:18:17.070Z,7.30
2022-12-06T04:21:05.903Z,7.30
2022-12-06T04:23:35.848Z,7.30
2022-12-06T04:26:05.383Z,7.30
2022-12-06T04:28:50.832Z,7.20
2022-12-06T04:31:36.785Z,7.30
2022-12-06T04:34:22.833Z,7.20
2022-12-06T04:37:09.762Z,7.20
2022-12-06T04:39:37.700Z,7.20
2022-12-06T04:42:23.278Z,7.20
2022-12-06T04:44:51.261Z,7.20
2022-12-06T04:47:19.256Z,7.20
2022-12-06T04:49:47.282Z,7.30
2022-12-06T04:52:16.929Z,7.20
2022-12-06T04:54:44.880Z,7.20
2022-12-06T04:57:14.694Z,7.20
2022-12-06T04:59:45.531Z,7.20
2022-12-06T05:02:15.666Z,7.20
2022-12-06T05:04:43.790Z,7.30
2022-12-06T05:07:12.124Z,7.20
2022-12-06T05:09:41.510Z,7.20
2022-12-06T05:12:10.014Z,7.20
2022-12-06T05:14:37.922Z,7.20
2022-12-06T05:17:05.788Z,7.20
2022-12-06T05:19:33.796Z,7.20
2022-12-06T05:22:01.759Z,7.20
2022-12-06T05:24:29.750Z,7.20
2022-12-06T05:26:58.963Z,7.20
2022-12-06T05:29:26.820Z,7.20
2022-12-06T05:31:54.783Z,7.20
2022-12-06T05:34:22.765Z,7.20
2022-12-06T05:36:50.915Z,7.20
2022-12-06T05:39:18.806Z,7.20
2022-12-06T05:41:46.651Z,7.10
2022-12-06T05:44:16.010Z,7.10
2022-12-06T05:46:43.854Z,7.10
2022-12-06T05:49:11.827Z,7.10
2022-12-06T05:51:40.341Z,7.10
2022-12-06T05:54:08.246Z,7.10
2022-12-06T05:56:36.138Z,7.10
2022-12-06T05:59:04.366Z,7.10
2022-12-06T06:01:33.651Z,7.10
2022-12-06T06:04:01.737Z,7.00
2022-12-06T06:06:29.900Z,7.00
2022-12-06T06:08:57.877Z,7.10
2022-12-06T06:11:25.808Z,7.10
2022-12-06T06:13:54.859Z,7.10
2022-12-06T06:16:22.943Z,7.10
2022-12-06T06:18:52.663Z,7.10
2022-12-06T06:21:20.572Z,7.10
2022-12-06T06:23:49.326Z,7.10
2022-12-06T06:26:17.321Z,7.10
2022-12-06T06:28:45.236Z,7.10
2022-12-06T06:31:13.171Z,7.10
2022-12-06T06:33:41.159Z,7.10
2022-12-06T06:36:11.034Z,7.10
2022-12-06T06:38:38.920Z,7.10
2022-12-06T06:41:07.625Z,7.10
2022-12-06T06:43:35.570Z,7.10
2022-12-06T06:46:06.821Z,7.10
2022-12-06T06:48:37.997Z,7.10
2022-12-06T06:51:07.414Z,7.10
2022-12-06T06:53:37.139Z,7.10
2022-12-06T06:56:05.797Z,7.10
2022-12-06T06:58:33.853Z,7.10
2022-12-06T07:01:05.548Z,7.10
2022-12-06T07:03:34.442Z,7.10
2022-12-06T07:06:04.035Z,7.10
2022-12-06T07:08:32.777Z,7.10
2022-12-06T07:11:02.256Z,7.10
2022-12-06T07:13:31.563Z,7.10
2022-12-06T07:15:59.929Z,7.10
2022-12-06T07:18:27.900Z,7.10
2022-12-06T07:21:01.417Z,7.10
2022-12-06T07:23:29.334Z,7.10
2022-12-06T07:26:06.975Z,7.10
2022-12-06T07:28:37.093Z,7.10
2022-12-06T07:31:12.281Z,7.10
2022-12-06T07:33:40.706Z,7.10
2022-12-06T07:36:12.473Z,7.10
2022-12-06T07:38:42.178Z,7.10
2022-12-06T07:41:30.638Z,7.10
2022-12-06T07:44:17.333Z,7.10
2022-12-06T07:46:45.397Z,7.10
2022-12-06T07:49:13.684Z,7.00
2022-12-06T07:51:41.760Z,7.00
2022-12-06T07:54:10.042Z,7.00
2022-12-06T07:56:39.616Z,7.00
2022-12-06T07:59:07.877Z,7.00
2022-12-06T08:01:36.006Z,7.00
2022-12-06T08:04:06.044Z,7.00
2022-12-06T08:06:34.937Z,6.90
2022-12-06T08:09:02.900Z,6.90
2022-12-06T08:11:30.761Z,6.90
2022-12-06T08:14:00.194Z,6.90
2022-12-06T08:16:28.166Z,6.90
2022-12-06T08:18:57.189Z,6.90
2022-12-06T08:21:26.379Z,6.80
2022-12-06T08:23:55.183Z,6.80
2022-12-06T08:26:23.214Z,6.80
2022-12-06T08:28:51.232Z,6.70
2022-12-06T08:31:22.731Z,6.70
2022-12-06T08:33:51.214Z,6.70
2022-12-06T08:36:21.727Z,6.70
2022-12-06T08:38:50.391Z,6.70
2022-12-06T08:41:36.116Z,6.70
2022-12-06T08:44:05.058Z,6.60
2022-12-06T08:46:35.410Z,6.60
2022-12-06T08:49:03.550Z,6.60
2022-12-06T08:51:33.363Z,6.60
2022-12-06T08:54:01.539Z,6.60
2022-12-06T08:56:29.969Z,6.60
2022-12-06T08:58:57.986Z,6.50
2022-12-06T09:01:31.325Z,6.50
2022-12-06T09:04:06.407Z,6.50
2022-12-06T09:06:34.743Z,6.50
2022-12-06T09:09:02.718Z,6.50
2022-12-06T09:11:30.775Z,6.50
2022-12-06T09:13:58.851Z,6.50
2022-12-06T09:16:26.966Z,6.50
2022-12-06T09:18:54.939Z,6.50
2022-12-06T09:21:27.740Z,6.50
2022-12-06T09:23:56.539Z,6.50
2022-12-06T09:26:25.758Z,6.40
2022-12-06T09:28:56.017Z,6.40
2022-12-06T09:31:24.880Z,6.40
2022-12-06T09:33:53.149Z,6.50
2022-12-06T09:36:25.977Z,6.50
2022-12-06T09:38:58.183Z,6.50
2022-12-06T09:41:47.408Z,6.50
2022-12-06T09:44:29.828Z,6.50
2022-12-06T09:47:12.022Z,6.50
2022-12-06T09:49:48.409Z,6.50
2022-12-06T09:52:33.212Z,6.60
2022-12-06T09:55:22.236Z,6.60
2022-12-06T09:57:57.473Z,6.60
2022-12-06T10:00:26.389Z,6.60
2022-12-06T10:03:30.285Z,6.70
2022-12-06T10:06:03.201Z,6.70
2022-12-06T10:08:48.199Z,6.80
2022-12-06T10:11:26.216Z,6.80
2022-12-06T10:14:16.268Z,6.90
2022-12-06T10:16:54.909Z,7.00
2022-12-06T10:19:34.671Z,7.00
2022-12-06T10:22:13.700Z,7.10
2022-12-06T10:24:54.648Z,7.10
2022-12-06T10:27:27.312Z,7.10
2022-12-06T10:29:58.105Z,7.20
2022-12-06T10:32:41.431Z,7.20
2022-12-06T10:35:18.852Z,7.20
2022-12-06T10:37:57.462Z,7.20
2022-12-06T10:40:31.075Z,7.30
2022-12-06T10:43:05.470Z,7.30
2022-12-06T10:45:56.626Z,7.30
2022-12-06T10:48:35.972Z,7.30
2022-12-06T10:51:10.454Z,7.40
2022-12-06T10:53:45.181Z,7.50
2022-12-06T10:56:19.510Z,7.50
2022-12-06T10:58:55.025Z,7.60
2022-12-06T11:01:29.591Z,7.70
2022-12-06T11:04:01.609Z,7.70
2022-12-06T11:06:33.843Z,7.80
2022-12-06T11:09:09.546Z,7.80
2022-12-06T11:11:41.562Z,7.90
2022-12-06T11:14:19.763Z,7.90
2022-12-06T11:16:55.155Z,8.00
2022-12-06T11:19:30.816Z,8.00
2022-12-06T11:22:08.093Z,8.00
2022-12-06T11:24:47.536Z,8.10
2022-12-06T11:27:22.806Z,8.10
2022-12-06T11:29:51.624Z,8.10
2022-12-06T11:32:20.321Z,8.10
2022-12-06T11:34:52.444Z,8.10
2022-12-06T11:37:22.314Z,8.20
2022-12-06T11:39:52.461Z,8.20
2022-12-06T11:42:26.116Z,8.20
2022-12-06T11:44:58.884Z,8.20
2022-12-06T11:47:27.211Z,8.30
2022-12-06T11:50:00.384Z,8.30
2022-12-06T11:52:38.337Z,8.30
2022-12-06T11:55:17.065Z,8.30
2022-12-06T11:57:51.758Z,8.30
2022-12-06T12:00:22.291Z,8.40
2022-12-06T12:02:51.886Z,8.40
2022-12-06T12:05:23.131Z,8.40
2022-12-06T12:07:56.518Z,8.40
2022-12-06T12:10:29.833Z,8.50
2022-12-06T12:13:38.204Z,8.50
2022-12-06T12:16:14.204Z,8.50
2022-12-06T12:18:49.880Z,8.50
2022-12-06T12:21:18.535Z,8.50
2022-12-06T12:23:48.540Z,8.50
2022-12-06T12:26:19.083Z,8.50
2022-12-06T12:29:04.217Z,8.50
2022-12-06T12:31:32.246Z,8.60
2022-12-06T12:34:15.239Z,8.60
2022-12-06T12:36:49.421Z,8.60
2022-12-06T12:39:27.097Z,8.60
2022-12-06T12:41:55.161Z,8.60
2022-12-06T12:44:42.470Z,8.60
2022-12-06T12:47:18.878Z,8.70
2022-12-06T12:50:18.641Z,8.70
2022-12-06T12:52:46.917Z,8.70
2022-12-06T12:55:18.733Z,8.70
2022-12-06T12:57:48.024Z,8.70
2022-12-06T13:00:19.937Z,8.70
2022-12-06T13:02:52.903Z,8.70
2022-12-06T13:05:33.275Z,8.70
2022-12-06T13:08:11.623Z,8.70
2022-12-06T13:10:44.342Z,8.80
2022-12-06T13:13:17.387Z,8.70
2022-12-06T13:15:48.417Z,8.70
2022-12-06T13:18:23.430Z,8.70
2022-12-06T13:20:53.577Z,8.70
2022-12-06T13:23:25.550Z,8.70
2022-12-06T13:26:02.924Z,8.80
2022-12-06T13:28:36.340Z,8.80
2022-12-06T13:31:12.406Z,8.80
2022-12-06T13:33:46.343Z,8.80
2022-12-06T13:36:16.364Z,8.70
2022-12-06T13:38:44.518Z,8.70
2022-12-06T13:41:14.671Z,8.70
2022-12-06T13:43:51.724Z,8.70
2022-12-06T13:46:27.155Z,8.70
2022-12-06T13:48:56.810Z,8.70
2022-12-06T13:51:48.358Z,8.70
2022-12-06T13:54:41.564Z,8.70
2022-12-06T13:57:32.857Z,8.70
2022-12-06T14:00:01.104Z,8.60
2022-12-06T14:02:55.326Z,8.60
2022-12-06T14:08:33.464Z,8.60
2022-12-06T14:11:24.033Z,8.60
2022-12-06T14:14:03.050Z,8.60
2022-12-06T14:16:35.874Z,8.60
2022-12-06T14:19:15.982Z,8.60
2022-12-06T14:21:45.435Z,8.70
2022-12-06T14:24:32.052Z,8.70
2022-12-06T14:27:13.631Z,8.70
2022-12-06T14:29:42.677Z,8.70
2022-12-06T14:32:11.070Z,8.70
2022-12-06T14:34:40.497Z,8.70
2022-12-06T14:37:19.733Z,8.70
2022-12-06T14:39:53.334Z,8.80
2022-12-06T14:42:39.849Z,8.70
2022-12-06T14:45:12.320Z,8.70
2022-12-06T14:47:40.511Z,8.70
2022-12-06T14:50:25.710Z,8.80
2022-12-06T14:53:03.652Z,8.80
2022-12-06T14:55:33.464Z,8.80
2022-12-06T14:58:03.164Z,8.80
2022-12-06T15:00:41.357Z,8.80
2022-12-06T15:03:29.060Z,8.80
2022-12-06T15:06:20.711Z,8.70
2022-12-06T15:08:55.067Z,8.70
2022-12-06T15:11:44.763Z,8.60
2022-12-06T15:14:15.141Z,8.60
2022-12-06T15:16:45.172Z,8.70
2022-12-06T15:19:15.328Z,8.70
2022-12-06T15:21:44.572Z,8.80
2022-12-06T15:24:18.550Z,8.90
2022-12-06T15:26:46.648Z,8.90
2022-12-06T15:29:15.068Z,9.00
2022-12-06T15:31:44.656Z,9.10
2022-12-06T15:34:23.899Z,9.20
2022-12-06T15:37:15.243Z,9.20
2022-12-06T15:39:41.905Z,9.20
2022-12-06T15:42:18.000Z,9.20
2022-12-06T15:44:49.203Z,9.20
2022-12-06T15:47:19.609Z,9.20
2022-12-06T15:49:51.007Z,9.20
2022-12-06T15:52:23.208Z,9.10
2022-12-06T15:54:51.656Z,9.00
2022-12-06T15:57:19.723Z,9.00
2022-12-06T15:59:47.701Z,8.90
2022-12-06T16:02:17.515Z,8.90
2022-12-06T16:04:48.371Z,8.80
2022-12-06T16:07:18.914Z,8.70
2022-12-06T16:09:49.048Z,8.70
2022-12-06T16:12:17.947Z,8.70
2022-12-06T16:14:45.843Z,8.70
2022-12-06T16:17:13.843Z,8.60
2022-12-06T16:19:59.398Z,8.60
2022-12-06T16:22:41.222Z,8.60
2022-12-06T16:25:10.894Z,8.50
2022-12-06T16:27:39.203Z,8.50
2022-12-06T16:30:08.326Z,8.50
2022-12-06T16:32:36.262Z,8.40
2022-12-06T16:35:04.501Z,8.40
2022-12-06T16:37:32.526Z,8.40
2022-12-06T16:40:00.382Z,8.40
2022-12-06T16:42:29.685Z,8.40
2022-12-06T16:44:57.630Z,8.40
2022-12-06T16:49:52.371Z,8.40
2022-12-06T16:52:20.215Z,8.40
2022-12-06T16:54:48.174Z,8.40
2022-12-06T16:57:16.156Z,8.40
2022-12-06T16:59:45.619Z,8.30
2022-12-06T17:02:28.538Z,8.30
2022-12-06T17:04:57.313Z,8.30
2022-12-06T17:07:25.266Z,8.30
2022-12-06T17:09:53.278Z,8.30
2022-12-06T17:12:21.691Z,8.30
2022-12-06T17:14:51.055Z,8.20
2022-12-06T17:17:21.543Z,8.30
2022-12-06T17:19:50.749Z,8.20
2022-12-06T17:22:19.202Z,8.20
2022-12-06T17:24:47.291Z,8.20
2022-12-06T17:27:16.009Z,8.20
2022-12-06T17:29:44.453Z,8.20
2022-12-06T17:32:14.436Z,8.20
2022-12-06T17:34:42.390Z,8.20
2022-12-06T17:37:10.346Z,8.20
2022-12-06T17:39:38.454Z,8.10
2022-12-06T17:42:24.872Z,8.10
2022-12-06T17:44:53.025Z,8.10
2022-12-06T17:47:22.359Z,8.10
2022-12-06T17:49:50.431Z,8.10
2022-12-06T17:52:18.876Z,8.10
2022-12-06T17:54:46.819Z,8.10
2022-12-06T17:57:18.390Z,8.10
2022-12-06T17:59:48.543Z,8.00
2022-12-06T18:02:19.024Z,8.00
2022-12-06T18:04:48.892Z,8.00
2022-12-06T18:07:17.996Z,8.00
2022-12-06T18:09:46.284Z,8.00
2022-12-06T18:12:15.375Z,8.00
2022-12-06T18:14:43.634Z,8.00
2022-12-06T18:17:11.818Z,8.00
2022-12-06T18:19:40.907Z,8.00
2022-12-06T18:22:10.277Z,8.00
2022-12-06T18:24:38.249Z,8.00
2022-12-06T18:27:06.560Z,8.00
2022-12-06T18:29:35.385Z,8.00
2022-12-06T18:32:03.871Z,8.00
2022-12-06T18:34:32.369Z,8.00
2022-12-06T18:37:00.322Z,8.00
2022-12-06T18:39:29.677Z,8.00
2022-12-06T18:41:57.778Z,8.00
2022-12-06T18:44:26.031Z,8.00
2022-12-06T18:46:54.419Z,8.00
2022-12-06T18:49:22.400Z,8.00
2022-12-06T18:51:50.448Z,8.00
2022-12-06T18:54:18.533Z,8.00
2022-12-06T18:56:47.803Z,8.00
2022-12-06T18:59:15.771Z,8.00
2022-12-06T19:01:44.307Z,8.00
2022-12-06T19:04:14.426Z,8.00
2022-12-06T19:06:43.775Z,8.00
2022-12-06T19:09:13.136Z,8.00
2022-12-06T19:11:42.791Z,8.00
2022-12-06T19:14:12.241Z,8.00
2022-12-06T19:16:42.338Z,8.00
2022-12-06T19:19:16.487Z,7.90
2022-12-06T19:21:45.701Z,7.90
2022-12-06T19:24:15.656Z,7.80
2022-12-06T19:26:44.103Z,7.80
2022-12-06T19:29:14.679Z,7.80
2022-12-06T19:31:42.955Z,7.70
2022-12-06T19:34:15.863Z,7.70
2022-12-06T19:36:44.837Z,7.70
2022-12-06T19:39:13.830Z,7.70
2022-12-06T19:41:56.412Z,7.70
2022-12-06T19:44:26.260Z,7.70
2022-12-06T19:46:54.549Z,7.70
2022-12-06T19:49:24.085Z,7.70
2022-12-06T19:51:52.543Z,7.70
2022-12-06T19:54:23.218Z,7.70
2022-12-06T19:56:53.394Z,7.80
2022-12-06T19:59:21.671Z,7.80
2022-12-06T20:01:52.826Z,7.80
2022-12-06T20:04:23.772Z,7.80
2022-12-06T20:06:52.941Z,7.80
2022-12-06T20:09:22.902Z,7.80
2022-12-06T20:12:03.738Z,7.80
2022-12-06T20:14:37.301Z,7.80
2022-12-06T20:17:09.190Z,7.80
2022-12-06T20:19:37.480Z,7.90
2022-12-06T20:22:05.781Z,7.90
2022-12-06T20:24:33.977Z,7.90
2022-12-06T20:27:01.833Z,7.80
2022-12-06T20:29:30.520Z,7.80
2022-12-06T20:32:00.128Z,7.80
2022-12-06T20:34:32.921Z,7.80
2022-12-06T20:37:02.277Z,7.70
2022-12-06T20:39:32.060Z,7.70
2022-12-06T20:42:01.001Z,7.70
2022-12-06T20:44:29.079Z,7.70
2022-12-06T20:46:57.480Z,7.70
2022-12-06T20:49:25.548Z,7.70
2022-12-06T20:51:54.936Z,7.70
2022-12-06T20:54:23.487Z,7.60
2022-12-06T20:56:53.255Z,7.60
2022-12-06T20:59:21.837Z,7.60
2022-12-06T21:01:50.141Z,7.60
2022-12-06T21:04:18.589Z,7.60
2022-12-06T21:06:46.595Z,7.60
2022-12-06T21:09:15.858Z,7.60
2022-12-06T21:11:43.780Z,7.60
2022-12-06T21:14:13.676Z,7.60
2022-12-06T21:16:42.644Z,7.60
2022-12-06T21:19:13.278Z,7.50
2022-12-06T21:21:44.276Z,7.50
2022-12-06T21:24:16.352Z,7.50
2022-12-06T21:26:44.292Z,7.50
2022-12-06T21:29:16.286Z,7.50
2022-12-06T21:31:44.280Z,7.50
2022-12-06T21:34:12.751Z,7.50
2022-12-06T21:36:40.848Z,7.50
2022-12-06T21:39:09.065Z,7.50
2022-12-06T21:41:38.713Z,7.50
2022-12-06T21:44:06.867Z,7.50
2022-12-06T21:46:34.934Z,7.50
2022-12-06T21:49:02.932Z,7.50
2022-12-06T21:51:32.424Z,7.50
2022-12-06T21:54:00.634Z,7.40
2022-12-06T21:56:30.211Z,7.50
2022-12-06T21:59:01.267Z,7.40
2022-12-06T22:01:31.115Z,7.40
2022-12-06T22:04:02.261Z,7.40
2022-12-06T22:06:31.520Z,7.40
2022-12-06T22:09:01.229Z,7.40
2022-12-06T22:11:30.873Z,7.40
2022-12-06T22:14:01.465Z,7.40
2022-12-06T22:16:30.232Z,7.40
2022-12-06T22:18:58.786Z,7.30
2022-12-06T22:21:29.055Z,7.30
2022-12-06T22:23:58.477Z,7.30
2022-12-06T22:26:28.588Z,7.30
2022-12-06T22:28:57.264Z,7.30
2022-12-06T22:31:28.287Z,7.20
2022-12-06T22:33:58.029Z,7.20
2022-12-06T22:36:26.674Z,7.20
2022-12-06T22:38:56.262Z,7.20
2022-12-06T22:41:24.704Z,7.10
2022-12-06T22:43:54.712Z,7.10
2022-12-06T22:46:23.029Z,7.10
2022-12-06T22:48:52.277Z,7.00
2022-12-06T22:51:22.182Z,7.00
2022-12-06T22:53:53.976Z,7.00
2022-12-06T22:56:22.124Z,7.00
2022-12-06T22:58:50.334Z,7.00
2022-12-06T23:01:19.924Z,6.90
2022-12-06T23:03:49.391Z,6.90
2022-12-06T23:06:21.548Z,6.90
2022-12-06T23:08:49.924Z,6.90
2022-12-06T23:11:19.745Z,6.80
2022-12-06T23:13:47.662Z,6.80
2022-12-06T23:16:18.208Z,6.80
2022-12-06T23:18:46.782Z,6.80
2022-12-06T23:21:16.974Z,6.80
2022-12-06T23:23:48.824Z,6.80
2022-12-06T23:26:19.621Z,6.80
2022-12-06T23:28:48.163Z,6.80
2022-12-06T23:31:18.796Z,6.70
2022-12-06T23:33:47.632Z,6.70
2022-12-06T23:36:21.595Z,6.70
2022-12-06T23:38:51.095Z,6.70
2022-12-06T23:41:21.346Z,6.60
2022-12-06T23:43:49.600Z,6.60
2022-12-06T23:46:22.676Z,6.60
2022-12-06T23:48:50.949Z,6.50
2022-12-06T23:51:20.876Z,6.50
2022-12-06T23:53:53.562Z,6.50
2022-12-06T23:56:22.921Z,6.50
2022-12-06T23:58:52.177Z,6.50
